createdAt,value
2022-11-08T00:02:06.929Z,36.15
2022-11-08T00:04:34.774Z,35.95
2022-11-08T00:07:19.769Z,34.80
2022-11-08T00:10:04.960Z,36.28
2022-11-08T00:12:50.436Z,35.70
2022-11-08T00:15:17.469Z,35.17
2022-11-08T00:17:44.460Z,35.83
2022-11-08T00:20:11.502Z,36.20
2022-11-08T00:22:38.152Z,36.35
2022-11-08T00:25:05.315Z,38.17
2022-11-08T00:27:31.997Z,37.20
2022-11-08T00:29:58.536Z,37.17
2022-11-08T00:32:26.301Z,37.53
2022-11-08T00:34:53.192Z,36.80
2022-11-08T00:37:21.602Z,37.75
2022-11-08T00:39:49.163Z,39.80
2022-11-08T00:42:16.155Z,39.83
2022-11-08T00:44:42.742Z,38.58
2022-11-08T00:47:09.759Z,38.30
2022-11-08T00:49:36.403Z,38.85
2022-11-08T00:52:03.497Z,39.20
2022-11-08T00:54:30.347Z,40.13
2022-11-08T00:56:56.967Z,39.42
2022-11-08T00:59:23.769Z,39.42
2022-11-08T01:01:50.604Z,40.33
2022-11-08T01:04:19.027Z,38.28
2022-11-08T01:06:45.986Z,37.78
2022-11-08T01:09:13.557Z,37.58
2022-11-08T01:11:45.331Z,37.00
2022-11-08T01:14:13.563Z,37.40
2022-11-08T01:16:41.137Z,37.78
2022-11-08T01:19:08.194Z,36.65
2022-11-08T01:21:35.119Z,36.85
2022-11-08T01:24:01.864Z,37.83
2022-11-08T01:26:29.458Z,37.10
2022-11-08T01:28:57.451Z,36.85
2022-11-08T01:31:29.644Z,36.75
2022-11-08T01:36:26.106Z,35.42
2022-11-08T01:38:54.089Z,37.03
2022-11-08T01:41:23.623Z,36.15
2022-11-08T01:43:56.312Z,36.05
2022-11-08T01:46:38.122Z,37.42
2022-11-08T01:49:15.682Z,34.05
2022-11-08T01:52:15.169Z,34.28
2022-11-08T01:55:15.922Z,31.55
2022-11-08T01:57:52.682Z,32.72
2022-11-08T02:00:19.913Z,32.25
2022-11-08T02:02:54.745Z,32.78
2022-11-08T02:05:27.344Z,33.22
2022-11-08T02:08:11.386Z,33.30
2022-11-08T02:10:44.946Z,33.95
2022-11-08T02:13:15.680Z,32.40
2022-11-08T02:15:43.401Z,33.03
2022-11-08T02:18:11.514Z,32.70
2022-11-08T02:20:40.602Z,32.25
2022-11-08T02:23:45.282Z,32.92
2022-11-08T02:26:13.005Z,32.08
2022-11-08T02:28:40.950Z,32.95
2022-11-08T02:31:12.827Z,34.17
2022-11-08T02:33:39.680Z,33.03
2022-11-08T02:36:08.296Z,31.92
2022-11-08T02:38:43.228Z,33.60
2022-11-08T02:41:09.880Z,33.20
2022-11-08T02:43:36.779Z,35.63
2022-11-08T02:46:03.742Z,37.05
2022-11-08T02:48:30.595Z,35.10
2022-11-08T02:50:57.764Z,33.75
2022-11-08T02:53:24.409Z,34.20
2022-11-08T02:55:51.293Z,34.92
2022-11-08T02:58:18.251Z,34.70
2022-11-08T03:00:45.111Z,35.03
2022-11-08T03:03:11.793Z,36.35
2022-11-08T03:05:38.456Z,33.80
2022-11-08T03:08:05.215Z,33.00
2022-11-08T03:10:32.006Z,34.22
2022-11-08T03:13:01.352Z,33.63
2022-11-08T03:15:29.231Z,34.58
2022-11-08T03:17:56.919Z,33.80
2022-11-08T03:20:25.333Z,34.28
2022-11-08T03:23:03.585Z,36.30
2022-11-08T03:25:30.528Z,35.08
2022-11-08T03:28:02.949Z,36.47
2022-11-08T03:30:29.606Z,37.33
2022-11-08T03:32:56.414Z,37.42
2022-11-08T03:35:23.144Z,38.78
2022-11-08T03:37:51.605Z,38.45
2022-11-08T03:40:19.241Z,37.05
2022-11-08T03:42:46.164Z,37.08
2022-11-08T03:45:13.669Z,37.38
2022-11-08T03:47:42.718Z,37.13
2022-11-08T03:50:10.673Z,38.35
2022-11-08T03:52:49.966Z,38.20
2022-11-08T03:55:18.550Z,39.05
2022-11-08T03:57:47.517Z,37.45
2022-11-08T04:00:16.131Z,39.53
2022-11-08T04:02:43.097Z,41.13
2022-11-08T04:05:11.826Z,40.10
2022-11-08T04:07:38.944Z,40.60
2022-11-08T04:10:07.882Z,40.03
2022-11-08T04:12:53.069Z,39.53
2022-11-08T04:15:22.705Z,38.90
2022-11-08T04:18:10.578Z,38.25
2022-11-08T04:21:00.239Z,36.47
2022-11-08T04:23:28.750Z,38.95
2022-11-08T04:25:57.714Z,35.95
2022-11-08T04:28:26.317Z,38.38
2022-11-08T04:30:54.862Z,38.58
2022-11-08T04:33:24.412Z,38.13
2022-11-08T04:35:53.341Z,38.90
2022-11-08T04:38:20.916Z,39.67
2022-11-08T04:40:48.083Z,38.40
2022-11-08T04:43:15.058Z,38.58
2022-11-08T04:45:41.742Z,39.42
2022-11-08T04:48:08.893Z,38.17
2022-11-08T04:50:36.621Z,37.40
2022-11-08T04:53:04.059Z,37.70
2022-11-08T04:55:30.722Z,40.15
2022-11-08T04:57:58.994Z,36.95
2022-11-08T05:00:26.556Z,37.85
2022-11-08T05:02:53.841Z,38.38
2022-11-08T05:05:20.718Z,38.40
2022-11-08T05:07:47.375Z,37.13
2022-11-08T05:10:14.195Z,36.22
2022-11-08T05:12:40.873Z,38.42
2022-11-08T05:15:08.536Z,37.38
2022-11-08T05:17:35.268Z,36.72
2022-11-08T05:20:20.840Z,40.53
2022-11-08T05:23:05.935Z,37.72
2022-11-08T05:25:32.960Z,38.40
2022-11-08T05:27:59.580Z,38.35
2022-11-08T05:30:26.602Z,41.53
2022-11-08T05:32:53.457Z,42.60
2022-11-08T05:35:21.747Z,40.85
2022-11-08T05:37:48.811Z,41.33
2022-11-08T05:40:15.638Z,39.72
2022-11-08T05:42:42.683Z,41.97
2022-11-08T05:45:09.841Z,38.28
2022-11-08T05:47:37.127Z,38.38
2022-11-08T05:50:04.355Z,38.53
2022-11-08T05:52:31.166Z,39.00
2022-11-08T05:54:58.049Z,39.03
2022-11-08T05:57:24.673Z,37.22
2022-11-08T05:59:51.557Z,33.67
2022-11-08T06:02:18.616Z,34.78
2022-11-08T06:04:45.422Z,32.95
2022-11-08T06:07:12.133Z,32.08
2022-11-08T06:09:40.095Z,32.42
2022-11-08T06:12:08.008Z,32.13
2022-11-08T06:14:34.893Z,35.30
2022-11-08T06:17:01.607Z,32.28
2022-11-08T06:19:28.471Z,31.85
2022-11-08T06:21:55.075Z,33.88
2022-11-08T06:24:21.653Z,32.92
2022-11-08T06:26:48.439Z,33.42
2022-11-08T06:29:15.107Z,31.50
2022-11-08T06:31:43.165Z,36.70
2022-11-08T06:34:10.608Z,37.08
2022-11-08T06:36:37.327Z,34.17
2022-11-08T06:39:04.135Z,37.15
2022-11-08T06:41:30.781Z,35.10
2022-11-08T06:43:57.356Z,32.45
2022-11-08T06:46:24.448Z,29.08
2022-11-08T06:48:51.350Z,28.67
2022-11-08T06:51:18.756Z,27.55
2022-11-08T06:53:45.433Z,29.92
2022-11-08T06:56:12.560Z,29.80
2022-11-08T06:58:39.678Z,31.23
2022-11-08T07:01:09.063Z,31.27
2022-11-08T07:03:35.774Z,30.33
2022-11-08T07:06:04.428Z,29.80
2022-11-08T07:08:32.305Z,30.23
2022-11-08T07:10:59.622Z,28.00
2022-11-08T07:13:26.365Z,28.40
2022-11-08T07:15:53.257Z,29.35
2022-11-08T07:18:20.163Z,29.48
2022-11-08T07:20:47.284Z,26.98
2022-11-08T07:23:13.970Z,25.92
2022-11-08T07:25:40.959Z,29.27
2022-11-08T07:28:17.755Z,30.13
2022-11-08T07:30:46.265Z,31.10
2022-11-08T07:33:13.649Z,29.35
2022-11-08T07:35:40.612Z,27.05
2022-11-08T07:38:07.863Z,27.52
2022-11-08T07:40:35.313Z,26.83
2022-11-08T07:43:17.514Z,27.30
2022-11-08T07:45:44.194Z,27.80
2022-11-08T07:48:13.800Z,27.63
2022-11-08T07:50:43.789Z,29.92
2022-11-08T07:53:11.265Z,30.17
2022-11-08T07:55:38.985Z,29.85
2022-11-08T07:58:06.126Z,31.63
2022-11-08T08:00:36.531Z,28.60
2022-11-08T08:03:05.118Z,28.55
2022-11-08T08:05:35.616Z,29.88
2022-11-08T08:08:03.073Z,28.58
2022-11-08T08:10:31.752Z,28.48
2022-11-08T08:12:58.639Z,29.48
2022-11-08T08:15:26.593Z,28.15
2022-11-08T08:17:53.626Z,28.33
2022-11-08T08:20:20.233Z,28.33
2022-11-08T08:22:49.040Z,29.80
2022-11-08T08:25:16.824Z,24.95
2022-11-08T08:27:50.965Z,25.00
2022-11-08T08:30:18.661Z,26.15
2022-11-08T08:32:53.592Z,26.42
2022-11-08T08:35:29.646Z,24.15
2022-11-08T08:38:00.654Z,23.08
2022-11-08T08:40:27.957Z,22.98
2022-11-08T08:42:54.645Z,25.13
2022-11-08T08:45:21.215Z,26.00
2022-11-08T08:47:53.219Z,24.67
2022-11-08T08:50:20.977Z,22.60
2022-11-08T08:52:48.064Z,24.30
2022-11-08T08:55:15.465Z,24.05
2022-11-08T08:57:46.640Z,24.75
2022-11-08T09:03:06.609Z,24.65
2022-11-08T09:05:34.369Z,23.00
2022-11-08T09:08:01.508Z,21.35
2022-11-08T09:10:28.937Z,23.13
2022-11-08T09:12:55.957Z,24.95
2022-11-08T09:15:22.562Z,22.42
2022-11-08T09:17:49.148Z,23.38
2022-11-08T09:20:16.405Z,22.42
2022-11-08T09:22:43.115Z,24.40
2022-11-08T09:25:10.743Z,21.38
2022-11-08T09:27:37.655Z,21.30
2022-11-08T09:30:05.387Z,19.45
2022-11-08T09:32:46.519Z,21.20
2022-11-08T09:35:18.902Z,18.77
2022-11-08T09:37:48.710Z,20.17
2022-11-08T09:40:48.995Z,18.60
2022-11-08T09:43:41.929Z,19.75
2022-11-08T09:46:17.547Z,18.85
2022-11-08T09:48:45.256Z,19.63
2022-11-08T09:51:21.288Z,20.02
2022-11-08T09:53:55.079Z,19.05
2022-11-08T09:56:21.663Z,20.02
2022-11-08T09:59:11.626Z,20.33
2022-11-08T10:01:39.084Z,17.33
2022-11-08T10:04:19.365Z,19.63
2022-11-08T10:07:24.775Z,18.00
2022-11-08T10:10:17.140Z,18.10
2022-11-08T10:15:31.314Z,16.98
2022-11-08T10:18:04.194Z,17.17
2022-11-08T10:20:52.760Z,16.88
2022-11-08T10:23:42.284Z,17.20
2022-11-08T10:26:26.739Z,19.48
2022-11-08T10:29:08.890Z,16.88
2022-11-08T10:31:38.757Z,15.98
2022-11-08T10:34:15.407Z,17.13
2022-11-08T10:36:45.475Z,15.60
2022-11-08T10:39:23.282Z,17.45
2022-11-08T10:42:22.237Z,17.00
2022-11-08T10:44:48.992Z,15.80
2022-11-08T10:47:34.413Z,16.00
2022-11-08T10:50:04.298Z,16.63
2022-11-08T10:52:42.435Z,14.18
2022-11-08T10:55:22.718Z,14.70
2022-11-08T10:57:49.446Z,16.15
2022-11-08T11:00:24.671Z,15.43
2022-11-08T11:03:06.342Z,15.80
2022-11-08T11:05:35.688Z,15.60
2022-11-08T11:08:10.159Z,15.13
2022-11-08T11:10:48.651Z,15.27
2022-11-08T11:15:57.493Z,15.52
2022-11-08T11:18:30.749Z,15.82
2022-11-08T11:21:10.410Z,15.18
2022-11-08T11:23:47.475Z,14.73
2022-11-08T11:26:32.194Z,14.23
2022-11-08T11:29:03.952Z,13.77
2022-11-08T11:31:36.911Z,14.38
2022-11-08T11:34:18.841Z,14.38
2022-11-08T11:36:48.390Z,15.18
2022-11-08T11:39:46.118Z,12.88
2022-11-08T11:42:48.580Z,13.10
2022-11-08T11:47:55.261Z,13.52
2022-11-08T11:50:38.393Z,13.27
2022-11-08T11:53:29.863Z,13.60
2022-11-08T11:56:11.715Z,12.33
2022-11-08T11:58:38.279Z,13.32
2022-11-08T12:01:17.902Z,13.63
2022-11-08T12:03:47.454Z,12.73
2022-11-08T12:06:51.673Z,12.35
2022-11-08T12:09:32.321Z,11.38
2022-11-08T12:12:16.058Z,13.00
2022-11-08T12:14:57.394Z,13.85
2022-11-08T12:17:33.841Z,12.37
2022-11-08T12:20:26.871Z,13.20
2022-11-08T12:23:03.029Z,12.32
2022-11-08T12:25:45.660Z,12.00
2022-11-08T12:28:42.321Z,11.90
2022-11-08T12:31:24.282Z,12.23
2022-11-08T12:34:00.910Z,11.43
2022-11-08T12:36:39.764Z,12.10
2022-11-08T12:39:27.813Z,11.05
2022-11-08T12:42:12.864Z,13.13
2022-11-08T12:45:01.265Z,11.90
2022-11-08T12:47:36.610Z,11.38
2022-11-08T12:50:30.008Z,13.18
2022-11-08T12:53:28.194Z,11.98
2022-11-08T12:55:57.370Z,11.10
2022-11-08T12:58:34.418Z,10.88
2022-11-08T13:01:13.244Z,11.75
2022-11-08T13:03:42.993Z,11.80
2022-11-08T13:06:20.374Z,11.80
2022-11-08T13:08:53.933Z,11.32
2022-11-08T13:11:43.492Z,10.68
2022-11-08T13:14:17.673Z,10.90
2022-11-08T13:17:05.536Z,10.75
2022-11-08T13:19:47.340Z,11.95
2022-11-08T13:22:29.284Z,10.90
2022-11-08T13:25:00.737Z,11.10
2022-11-08T13:27:41.422Z,12.52
2022-11-08T13:30:16.963Z,9.75
2022-11-08T13:32:43.504Z,10.68
2022-11-08T13:35:28.862Z,10.25
2022-11-08T13:38:23.530Z,9.98
2022-11-08T13:40:59.300Z,10.02
2022-11-08T13:43:31.424Z,11.77
2022-11-08T13:46:20.078Z,11.63
2022-11-08T13:49:14.934Z,11.85
2022-11-08T13:51:42.594Z,10.05
2022-11-08T13:54:21.434Z,10.65
2022-11-08T13:56:48.304Z,11.50
2022-11-08T13:59:30.116Z,10.30
2022-11-08T14:02:05.668Z,11.18
2022-11-08T14:04:38.820Z,11.80
2022-11-08T14:07:35.480Z,11.20
2022-11-08T14:10:22.845Z,9.68
2022-11-08T14:13:19.418Z,11.68
2022-11-08T14:15:53.869Z,11.80
2022-11-08T14:18:32.131Z,11.05
2022-11-08T14:20:59.358Z,11.77
2022-11-08T14:23:29.436Z,10.95
2022-11-08T14:25:57.944Z,11.30
2022-11-08T14:28:33.739Z,10.38
2022-11-08T14:31:03.711Z,10.75
2022-11-08T14:33:32.373Z,11.45
2022-11-08T14:36:05.360Z,11.45
2022-11-08T14:38:35.903Z,13.55
2022-11-08T14:41:05.521Z,13.02
2022-11-08T14:43:42.646Z,11.73
2022-11-08T14:46:34.461Z,11.38
2022-11-08T14:49:31.991Z,12.73
2022-11-08T14:52:19.116Z,12.20
2022-11-08T14:54:47.671Z,11.23
2022-11-08T14:57:42.124Z,12.02
2022-11-08T15:00:29.644Z,11.82
2022-11-08T15:03:06.414Z,13.25
2022-11-08T15:05:42.313Z,13.65
2022-11-08T15:08:21.915Z,12.35
2022-11-08T15:11:28.575Z,14.05
2022-11-08T15:14:19.636Z,13.30
2022-11-08T15:16:58.650Z,13.43
2022-11-08T15:19:38.105Z,13.13
2022-11-08T15:22:30.600Z,13.25
2022-11-08T15:25:19.135Z,11.95
2022-11-08T15:27:50.515Z,14.43
2022-11-08T15:30:19.499Z,13.18
2022-11-08T15:32:46.569Z,14.73
2022-11-08T15:35:28.390Z,15.93
2022-11-08T15:38:35.477Z,15.75
2022-11-08T15:41:05.264Z,16.73
2022-11-08T15:43:31.809Z,17.73
2022-11-08T15:46:03.802Z,19.00
2022-11-08T15:48:31.959Z,17.15
2022-11-08T15:50:59.020Z,18.17
2022-11-08T15:53:27.191Z,17.73
2022-11-08T15:56:04.899Z,15.82
2022-11-08T15:58:42.155Z,15.23
2022-11-08T16:01:22.955Z,16.48
2022-11-08T16:03:49.759Z,17.70
2022-11-08T16:06:16.790Z,17.08
2022-11-08T16:08:43.568Z,19.52
2022-11-08T16:11:22.948Z,17.05
2022-11-08T16:13:51.983Z,19.55
2022-11-08T16:16:18.591Z,18.63
2022-11-08T16:18:45.889Z,18.45
2022-11-08T16:21:13.838Z,19.48
2022-11-08T16:23:41.016Z,19.08
2022-11-08T16:26:12.539Z,18.73
2022-11-08T16:28:39.456Z,19.25
2022-11-08T16:31:10.389Z,16.42
2022-11-08T16:33:37.146Z,19.38
2022-11-08T16:36:13.257Z,21.38
2022-11-08T16:38:40.080Z,20.23
2022-11-08T16:41:06.776Z,20.58
2022-11-08T16:43:33.775Z,21.55
2022-11-08T16:46:06.735Z,20.42
2022-11-08T16:48:36.646Z,20.15
2022-11-08T16:51:05.977Z,20.00
2022-11-08T16:53:34.635Z,19.65
2022-11-08T16:56:01.575Z,22.70
2022-11-08T16:58:28.419Z,21.10
2022-11-08T17:00:56.394Z,21.40
2022-11-08T17:03:25.412Z,23.42
2022-11-08T17:05:54.063Z,22.98
2022-11-08T17:08:21.928Z,23.27
2022-11-08T17:10:48.756Z,20.35
2022-11-08T17:13:16.989Z,21.27
2022-11-08T17:15:45.288Z,20.90
2022-11-08T17:18:17.669Z,19.48
2022-11-08T17:20:44.903Z,20.60
2022-11-08T17:23:11.954Z,19.73
2022-11-08T17:25:44.174Z,18.73
2022-11-08T17:30:44.711Z,18.63
2022-11-08T17:33:12.945Z,19.92
2022-11-08T17:35:43.913Z,18.08
2022-11-08T17:38:11.109Z,18.00
2022-11-08T17:40:37.909Z,17.75
2022-11-08T17:43:04.577Z,17.83
2022-11-08T17:45:31.274Z,18.48
2022-11-08T17:47:57.975Z,16.73
2022-11-08T17:50:24.992Z,17.08
2022-11-08T17:52:54.850Z,17.15
2022-11-08T17:55:21.603Z,17.15
2022-11-08T17:57:48.354Z,17.05
2022-11-08T18:00:16.377Z,15.48
2022-11-08T18:02:43.506Z,15.05
2022-11-08T18:05:10.580Z,14.85
2022-11-08T18:07:38.674Z,14.88
2022-11-08T18:10:07.076Z,16.00
2022-11-08T18:12:34.008Z,17.70
2022-11-08T18:15:01.228Z,17.02
2022-11-08T18:17:28.192Z,17.48
2022-11-08T18:19:54.921Z,16.90
2022-11-08T18:22:21.654Z,18.13
2022-11-08T18:24:50.059Z,16.20
2022-11-08T18:27:17.170Z,18.23
2022-11-08T18:29:43.980Z,19.27
2022-11-08T18:32:10.785Z,19.73
2022-11-08T18:34:40.147Z,17.98
2022-11-08T18:37:06.738Z,18.02
2022-11-08T18:39:33.738Z,16.95
2022-11-08T18:42:00.378Z,18.23
2022-11-08T18:44:27.006Z,18.63
2022-11-08T18:46:53.905Z,19.30
2022-11-08T18:49:20.700Z,18.52
2022-11-08T18:51:52.118Z,17.30
2022-11-08T18:54:19.855Z,16.33
2022-11-08T18:56:46.486Z,16.52
2022-11-08T18:59:13.259Z,17.48
2022-11-08T19:01:39.927Z,19.23
2022-11-08T19:04:06.790Z,18.17
2022-11-08T19:06:33.506Z,17.45
2022-11-08T19:09:00.307Z,19.13
2022-11-08T19:11:30.841Z,19.33
2022-11-08T19:13:58.966Z,18.80
2022-11-08T19:16:25.690Z,19.00
2022-11-08T19:18:52.434Z,17.90
2022-11-08T19:21:22.956Z,24.00
2022-11-08T19:23:50.779Z,19.33
2022-11-08T19:26:22.922Z,21.20
2022-11-08T19:31:19.619Z,43.33
2022-11-08T19:33:47.504Z,37.58
2022-11-08T19:36:20.987Z,29.40
2022-11-08T19:38:47.915Z,29.23
2022-11-08T19:41:17.012Z,26.88
2022-11-08T19:43:44.315Z,24.33
2022-11-08T19:46:15.052Z,20.73
2022-11-08T19:48:43.969Z,20.52
2022-11-08T19:51:14.941Z,20.65
2022-11-08T19:53:44.810Z,22.33
2022-11-08T19:56:16.997Z,24.13
2022-11-08T20:01:17.627Z,22.33
2022-11-08T20:03:45.342Z,24.38
2022-11-08T20:06:13.840Z,23.90
2022-11-08T20:08:40.681Z,26.75
2022-11-08T20:11:15.455Z,25.42
2022-11-08T20:13:42.578Z,23.70
2022-11-08T20:16:11.571Z,24.65
2022-11-08T20:18:38.664Z,26.30
2022-11-08T20:21:09.427Z,24.83
2022-11-08T20:23:36.501Z,23.55
2022-11-08T20:26:05.164Z,23.73
2022-11-08T20:28:32.196Z,22.33
2022-11-08T20:31:03.942Z,25.05
2022-11-08T20:33:33.448Z,23.45
2022-11-08T20:36:19.452Z,23.30
2022-11-08T20:38:48.540Z,26.95
2022-11-08T20:41:17.388Z,27.90
2022-11-08T20:43:45.986Z,22.08
2022-11-08T20:46:13.734Z,24.20
2022-11-08T20:48:42.794Z,27.85
2022-11-08T20:51:13.826Z,46.70
2022-11-08T20:53:42.181Z,34.92
2022-11-08T20:56:12.512Z,32.92
2022-11-08T20:58:39.259Z,26.20
2022-11-08T21:01:07.777Z,29.65
2022-11-08T21:03:35.353Z,25.08
2022-11-08T21:06:05.117Z,24.23
2022-11-08T21:11:19.701Z,24.15
2022-11-08T21:13:46.983Z,24.45
2022-11-08T21:16:29.267Z,26.45
2022-11-08T21:18:58.509Z,24.83
2022-11-08T21:21:25.906Z,27.70
2022-11-08T21:23:54.798Z,24.98
2022-11-08T21:26:22.536Z,26.08
2022-11-08T21:28:49.227Z,25.80
2022-11-08T21:31:16.218Z,25.67
2022-11-08T21:33:43.098Z,27.55
2022-11-08T21:36:10.946Z,27.05
2022-11-08T21:38:39.357Z,26.40
2022-11-08T21:41:08.081Z,25.58
2022-11-08T21:43:39.822Z,26.77
2022-11-08T21:46:21.008Z,28.13
2022-11-08T21:48:52.281Z,29.38
2022-11-08T21:51:18.871Z,29.08
2022-11-08T21:53:53.860Z,27.10
2022-11-08T21:56:22.686Z,28.88
2022-11-08T21:58:49.452Z,28.30
2022-11-08T22:01:16.823Z,28.92
2022-11-08T22:03:43.595Z,27.45
2022-11-08T22:06:10.326Z,26.67
2022-11-08T22:08:36.963Z,25.02
2022-11-08T22:11:03.809Z,24.60
2022-11-08T22:13:30.386Z,26.45
2022-11-08T22:15:57.103Z,28.77
2022-11-08T22:18:36.832Z,26.55
2022-11-08T22:21:29.184Z,25.52
2022-11-08T22:23:55.950Z,25.13
2022-11-08T22:26:22.579Z,26.80
2022-11-08T22:28:49.233Z,29.83
2022-11-08T22:31:15.983Z,26.25
2022-11-08T22:33:42.765Z,26.98
2022-11-08T22:36:09.657Z,26.83
2022-11-08T22:38:36.472Z,27.73
2022-11-08T22:41:03.626Z,26.98
2022-11-08T22:43:30.878Z,24.38
2022-11-08T22:45:57.525Z,24.58
2022-11-08T22:48:24.128Z,26.20
2022-11-08T22:50:50.737Z,25.08
2022-11-08T22:53:17.793Z,25.48
2022-11-08T22:55:45.304Z,27.10
2022-11-08T22:58:13.589Z,25.67
2022-11-08T23:03:21.409Z,27.73
2022-11-08T23:05:52.734Z,25.92
2022-11-08T23:08:20.298Z,25.48
2022-11-08T23:11:06.051Z,24.95
2022-11-08T23:13:51.664Z,24.25
2022-11-08T23:16:37.616Z,24.02
2022-11-08T23:19:51.987Z,23.25
2022-11-08T23:22:37.876Z,27.35
2022-11-08T23:25:05.064Z,27.63
2022-11-08T23:27:50.213Z,26.73
2022-11-08T23:30:37.343Z,24.33
2022-11-08T23:33:06.551Z,23.67
2022-11-08T23:35:33.697Z,25.45
2022-11-08T23:38:00.314Z,23.35
2022-11-08T23:40:45.580Z,26.70
2022-11-08T23:43:36.086Z,25.33
2022-11-08T23:46:12.639Z,29.75
2022-11-08T23:48:40.735Z,26.27
2022-11-08T23:51:07.898Z,26.10
2022-11-08T23:53:37.151Z,25.33
2022-11-08T23:56:04.336Z,25.33
2022-11-08T23:58:32.265Z,25.75
